createdAt,value
2022-10-24T00:01:12.086Z,18.47
2022-10-24T00:03:39.284Z,18.36
2022-10-24T00:06:08.130Z,18.41
2022-10-24T00:08:36.306Z,18.33
2022-10-24T00:11:08.993Z,18.38
2022-10-24T00:13:35.686Z,18.38
2022-10-24T00:16:02.341Z,18.35
2022-10-24T00:18:29.227Z,18.26
2022-10-24T00:20:56.070Z,18.33
2022-10-24T00:23:22.913Z,18.37
2022-10-24T00:25:49.592Z,18.35
2022-10-24T00:28:16.271Z,18.26
2022-10-24T00:30:42.877Z,18.19
2022-10-24T00:33:09.536Z,18.15
2022-10-24T00:35:36.155Z,18.12
2022-10-24T00:38:02.822Z,18.05
2022-10-24T00:40:29.474Z,18.05
2022-10-24T00:42:56.255Z,18.02
2022-10-24T00:45:44.871Z,18.05
2022-10-24T00:48:43.022Z,18.02
2022-10-24T00:51:18.837Z,18.01
2022-10-24T00:53:48.103Z,17.99
2022-10-24T00:56:17.158Z,18.05
2022-10-24T00:58:44.963Z,17.97
2022-10-24T01:01:12.986Z,17.93
2022-10-24T01:03:39.881Z,17.89
2022-10-24T01:06:21.666Z,17.85
2022-10-24T01:08:58.306Z,17.84
2022-10-24T01:11:37.975Z,17.74
2022-10-24T01:14:23.408Z,17.61
2022-10-24T01:17:16.486Z,17.57
2022-10-24T01:20:22.859Z,17.49
2022-10-24T01:23:03.794Z,17.43
2022-10-24T01:26:02.899Z,17.50
2022-10-24T01:29:00.259Z,17.68
2022-10-24T01:31:40.967Z,17.82
2022-10-24T01:34:11.949Z,17.83
2022-10-24T01:36:51.840Z,17.94
2022-10-24T01:39:20.484Z,17.84
2022-10-24T01:41:47.897Z,17.85
2022-10-24T01:44:27.750Z,17.72
2022-10-24T01:47:09.000Z,17.63
2022-10-24T01:49:37.428Z,17.66
2022-10-24T01:52:08.733Z,17.62
2022-10-24T01:54:37.548Z,17.58
2022-10-24T01:57:05.558Z,17.61
2022-10-24T01:59:32.064Z,17.64
2022-10-24T02:02:11.365Z,17.62
2022-10-24T02:04:42.109Z,17.60
2022-10-24T02:07:10.365Z,17.57
2022-10-24T02:09:38.957Z,17.64
2022-10-24T02:12:09.200Z,17.70
2022-10-24T02:14:43.095Z,17.74
2022-10-24T02:17:11.169Z,17.80
2022-10-24T02:19:38.360Z,17.64
2022-10-24T02:22:15.796Z,17.58
2022-10-24T02:24:48.150Z,17.47
2022-10-24T02:27:18.814Z,17.50
2022-10-24T02:29:51.065Z,17.57
2022-10-24T02:32:23.542Z,17.57
2022-10-24T02:34:50.113Z,17.58
2022-10-24T02:37:17.473Z,17.56
2022-10-24T02:39:46.774Z,17.54
2022-10-24T02:42:14.864Z,17.63
2022-10-24T02:44:42.643Z,17.56
2022-10-24T02:47:11.915Z,17.64
2022-10-24T02:49:38.792Z,17.75
2022-10-24T02:52:06.311Z,17.79
2022-10-24T02:54:33.103Z,17.76
2022-10-24T02:57:04.255Z,17.83
2022-10-24T02:59:30.988Z,17.72
2022-10-24T03:01:57.898Z,17.72
2022-10-24T03:04:24.586Z,17.76
2022-10-24T03:06:51.314Z,17.78
2022-10-24T03:09:17.993Z,17.71
2022-10-24T03:11:44.621Z,17.73
2022-10-24T03:14:11.784Z,17.70
2022-10-24T03:16:38.659Z,17.70
2022-10-24T03:19:05.386Z,17.73
2022-10-24T03:21:32.042Z,17.69
2022-10-24T03:23:58.724Z,17.70
2022-10-24T03:26:25.356Z,17.73
2022-10-24T03:28:51.965Z,17.64
2022-10-24T03:31:18.659Z,17.70
2022-10-24T03:33:45.680Z,17.70
2022-10-24T03:36:12.400Z,17.72
2022-10-24T03:38:39.119Z,17.60
2022-10-24T03:41:05.895Z,17.61
2022-10-24T03:43:32.862Z,17.59
2022-10-24T03:45:59.755Z,17.50
2022-10-24T03:48:26.753Z,17.48
2022-10-24T03:50:53.457Z,17.48
2022-10-24T03:53:20.135Z,17.48
2022-10-24T03:55:46.793Z,17.39
2022-10-24T03:58:13.957Z,17.43
2022-10-24T04:00:41.697Z,17.46
2022-10-24T04:03:09.915Z,17.50
2022-10-24T04:05:36.800Z,17.43
2022-10-24T04:08:03.791Z,17.43
2022-10-24T04:10:30.510Z,17.41
2022-10-24T04:12:57.233Z,17.42
2022-10-24T04:15:24.348Z,17.48
2022-10-24T04:17:51.056Z,17.48
2022-10-24T04:20:22.420Z,17.51
2022-10-24T04:22:49.385Z,17.53
2022-10-24T04:25:16.670Z,17.59
2022-10-24T04:27:43.340Z,17.63
2022-10-24T04:30:16.620Z,17.62
2022-10-24T04:32:44.147Z,17.65
2022-10-24T04:35:11.279Z,17.69
2022-10-24T04:37:38.025Z,17.71
2022-10-24T04:40:05.169Z,17.64
2022-10-24T04:42:31.775Z,17.80
2022-10-24T04:44:58.405Z,17.75
2022-10-24T04:47:25.052Z,17.80
2022-10-24T04:49:51.849Z,17.84
2022-10-24T04:52:18.515Z,17.83
2022-10-24T04:54:45.170Z,17.78
2022-10-24T04:57:11.818Z,17.74
2022-10-24T04:59:38.556Z,17.75
2022-10-24T05:02:05.218Z,17.75
2022-10-24T05:04:31.929Z,17.76
2022-10-24T05:06:58.708Z,17.78
2022-10-24T05:09:25.584Z,17.78
2022-10-24T05:11:54.768Z,17.79
2022-10-24T05:14:25.303Z,17.80
2022-10-24T05:16:52.128Z,17.81
2022-10-24T05:19:19.741Z,17.77
2022-10-24T05:21:46.759Z,17.80
2022-10-24T05:24:13.442Z,17.82
2022-10-24T05:26:40.163Z,17.80
2022-10-24T05:31:34.531Z,17.88
2022-10-24T05:34:01.252Z,17.80
2022-10-24T05:36:28.028Z,17.80
2022-10-24T05:38:54.680Z,17.75
2022-10-24T05:41:21.365Z,17.68
2022-10-24T05:43:47.949Z,17.63
2022-10-24T05:46:14.642Z,17.63
2022-10-24T05:48:41.310Z,17.61
2022-10-24T05:51:07.998Z,17.63
2022-10-24T05:53:34.637Z,17.56
2022-10-24T05:56:01.351Z,17.48
2022-10-24T05:58:28.047Z,17.43
2022-10-24T06:00:54.714Z,17.39
2022-10-24T06:03:22.025Z,17.42
2022-10-24T06:05:49.361Z,17.34
2022-10-24T06:08:16.212Z,17.28
2022-10-24T06:10:46.905Z,17.23
2022-10-24T06:13:13.832Z,17.20
2022-10-24T06:15:44.734Z,17.12
2022-10-24T06:18:11.359Z,16.52
2022-10-24T06:20:38.068Z,16.53
2022-10-24T06:23:04.737Z,16.32
2022-10-24T06:25:31.417Z,16.28
2022-10-24T06:27:58.041Z,16.27
2022-10-24T06:30:24.696Z,16.22
2022-10-24T06:32:51.517Z,16.11
2022-10-24T06:35:19.276Z,16.12
2022-10-24T06:37:48.213Z,16.09
2022-10-24T06:40:16.540Z,16.11
2022-10-24T06:42:43.189Z,16.18
2022-10-24T06:45:09.873Z,16.17
2022-10-24T06:47:36.659Z,16.21
2022-10-24T06:50:03.834Z,16.07
2022-10-24T06:52:30.593Z,16.07
2022-10-24T06:54:57.168Z,16.20
2022-10-24T06:57:23.887Z,16.27
2022-10-24T06:59:50.561Z,16.26
2022-10-24T07:02:17.462Z,16.21
2022-10-24T07:04:44.309Z,16.27
2022-10-24T07:07:18.982Z,16.26
2022-10-24T07:09:46.055Z,16.25
2022-10-24T07:12:12.731Z,16.20
2022-10-24T07:14:39.410Z,16.14
2022-10-24T07:17:06.104Z,16.09
2022-10-24T07:19:36.454Z,15.98
2022-10-24T07:22:04.299Z,16.03
2022-10-24T07:24:31.407Z,16.06
2022-10-24T07:26:58.065Z,16.11
2022-10-24T07:29:24.769Z,16.06
2022-10-24T07:31:51.664Z,16.05
2022-10-24T07:34:18.565Z,16.08
2022-10-24T07:36:45.269Z,16.12
2022-10-24T07:39:12.757Z,16.16
2022-10-24T07:41:41.349Z,16.26
2022-10-24T07:44:08.932Z,16.25
2022-10-24T07:46:35.601Z,16.26
2022-10-24T07:49:02.192Z,16.28
2022-10-24T07:51:29.842Z,16.38
2022-10-24T07:53:58.057Z,16.38
2022-10-24T07:56:25.113Z,16.43
2022-10-24T07:58:51.748Z,16.27
2022-10-24T08:01:23.753Z,16.10
2022-10-24T08:03:50.653Z,16.21
2022-10-24T08:06:20.804Z,16.17
2022-10-24T08:08:47.717Z,16.08
2022-10-24T08:11:16.791Z,16.06
2022-10-24T08:13:43.473Z,16.02
2022-10-24T08:16:12.305Z,16.04
2022-10-24T08:18:40.131Z,15.90
2022-10-24T08:21:13.072Z,15.88
2022-10-24T08:23:41.960Z,15.78
2022-10-24T08:26:10.284Z,15.65
2022-10-24T08:28:36.909Z,15.58
2022-10-24T08:31:07.263Z,15.52
2022-10-24T08:33:35.345Z,15.70
2022-10-24T08:36:06.043Z,15.68
2022-10-24T08:38:32.713Z,15.76
2022-10-24T08:41:00.282Z,15.77
2022-10-24T08:43:26.917Z,15.99
2022-10-24T08:46:02.452Z,16.09
2022-10-24T08:48:57.252Z,16.28
2022-10-24T08:51:28.891Z,16.36
2022-10-24T08:53:57.994Z,16.39
2022-10-24T08:56:28.979Z,16.39
2022-10-24T08:58:55.995Z,16.25
2022-10-24T09:01:37.913Z,16.14
2022-10-24T09:04:07.683Z,16.15
2022-10-24T09:06:34.433Z,16.12
2022-10-24T09:09:04.021Z,16.04
2022-10-24T09:11:30.950Z,16.08
2022-10-24T09:14:00.461Z,16.16
2022-10-24T09:16:27.746Z,16.24
2022-10-24T09:18:55.906Z,16.32
2022-10-24T09:21:22.917Z,16.21
2022-10-24T09:23:50.909Z,16.37
2022-10-24T09:26:29.218Z,16.53
2022-10-24T09:28:57.090Z,16.63
2022-10-24T09:31:25.338Z,16.60
2022-10-24T09:33:52.826Z,16.64
2022-10-24T09:36:21.318Z,16.57
2022-10-24T09:38:49.183Z,16.55
2022-10-24T09:41:18.001Z,16.52
2022-10-24T09:43:44.541Z,16.42
2022-10-24T09:46:14.222Z,16.44
2022-10-24T09:49:00.976Z,16.42
2022-10-24T09:51:33.433Z,16.48
2022-10-24T09:54:05.387Z,16.49
2022-10-24T09:56:41.074Z,16.32
2022-10-24T09:59:23.206Z,16.40
2022-10-24T10:01:49.896Z,16.46
2022-10-24T10:04:18.329Z,16.53
2022-10-24T10:06:49.997Z,16.49
2022-10-24T10:09:24.848Z,16.42
2022-10-24T10:12:05.807Z,16.44
2022-10-24T10:14:33.086Z,16.47
2022-10-24T10:17:01.726Z,16.57
2022-10-24T10:19:28.754Z,16.56
2022-10-24T10:22:02.025Z,16.59
2022-10-24T10:24:43.365Z,16.57
2022-10-24T10:27:33.030Z,16.70
2022-10-24T10:30:25.705Z,16.74
2022-10-24T10:33:14.323Z,16.67
2022-10-24T10:35:46.911Z,16.62
2022-10-24T10:38:50.190Z,16.68
2022-10-24T10:41:32.496Z,16.74
2022-10-24T10:44:30.070Z,16.75
2022-10-24T10:47:06.330Z,16.72
2022-10-24T10:49:39.951Z,16.82
2022-10-24T10:52:12.241Z,16.83
2022-10-24T10:54:47.901Z,16.83
2022-10-24T10:57:25.499Z,16.78
2022-10-24T11:00:03.348Z,16.86
2022-10-24T11:02:59.354Z,16.93
2022-10-24T11:05:51.359Z,16.95
2022-10-24T11:08:31.900Z,16.98
2022-10-24T11:11:03.534Z,16.95
2022-10-24T11:13:34.838Z,16.86
2022-10-24T11:16:06.128Z,16.82
2022-10-24T11:18:35.702Z,16.91
2022-10-24T11:21:13.893Z,16.87
2022-10-24T11:23:57.989Z,16.83
2022-10-24T11:26:54.015Z,16.87
2022-10-24T11:29:39.484Z,16.92
2022-10-24T11:32:19.413Z,16.88
2022-10-24T11:34:52.997Z,16.87
2022-10-24T11:37:28.085Z,16.85
2022-10-24T11:39:57.915Z,16.91
2022-10-24T11:42:48.107Z,16.93
2022-10-24T11:45:20.433Z,16.84
2022-10-24T11:48:05.958Z,16.95
2022-10-24T11:50:44.272Z,17.00
2022-10-24T11:53:10.806Z,17.06
2022-10-24T11:55:39.199Z,17.23
2022-10-24T11:58:13.504Z,17.23
2022-10-24T12:01:02.436Z,17.15
2022-10-24T12:03:48.036Z,17.24
2022-10-24T12:06:22.809Z,17.26
2022-10-24T12:09:16.725Z,17.36
2022-10-24T12:12:19.156Z,17.33
2022-10-24T12:15:07.659Z,17.32
2022-10-24T12:17:41.401Z,17.48
2022-10-24T12:20:14.894Z,17.62
2022-10-24T12:22:43.224Z,17.53
2022-10-24T12:25:47.207Z,17.64
2022-10-24T12:28:23.261Z,17.66
2022-10-24T12:31:10.176Z,17.61
2022-10-24T12:33:36.982Z,17.40
2022-10-24T12:36:03.815Z,17.45
2022-10-24T12:38:30.366Z,17.36
2022-10-24T12:41:06.830Z,17.41
2022-10-24T12:43:51.344Z,17.38
2022-10-24T12:46:23.145Z,17.30
2022-10-24T12:48:59.524Z,17.38
2022-10-24T12:51:33.165Z,17.29
2022-10-24T12:54:02.838Z,17.36
2022-10-24T12:56:33.707Z,17.43
2022-10-24T12:59:19.208Z,17.35
2022-10-24T13:01:47.412Z,17.31
2022-10-24T13:07:59.079Z,17.46
2022-10-24T13:10:47.879Z,17.72
2022-10-24T13:13:56.823Z,17.61
2022-10-24T13:16:38.313Z,17.49
2022-10-24T13:19:22.080Z,17.51
2022-10-24T13:21:51.444Z,17.59
2022-10-24T13:24:19.896Z,17.42
2022-10-24T13:26:48.819Z,17.52
2022-10-24T13:29:21.424Z,17.49
2022-10-24T13:31:52.793Z,17.55
2022-10-24T13:34:22.192Z,17.59
2022-10-24T13:36:52.430Z,17.63
2022-10-24T13:39:23.895Z,17.85
2022-10-24T13:41:58.056Z,17.88
2022-10-24T13:44:30.670Z,17.92
2022-10-24T13:47:25.652Z,17.77
2022-10-24T13:50:15.408Z,17.85
2022-10-24T13:52:44.556Z,17.85
2022-10-24T13:55:22.300Z,17.85
2022-10-24T13:57:56.189Z,17.84
2022-10-24T14:00:26.982Z,17.85
2022-10-24T14:02:54.815Z,17.88
2022-10-24T14:05:29.916Z,17.90
2022-10-24T14:07:57.971Z,17.91
2022-10-24T14:10:25.122Z,17.95
2022-10-24T14:12:57.044Z,17.91
2022-10-24T14:15:30.450Z,17.78
2022-10-24T14:17:58.368Z,17.71
2022-10-24T14:20:33.605Z,17.80
2022-10-24T14:23:00.781Z,17.76
2022-10-24T14:25:37.829Z,17.78
2022-10-24T14:28:17.949Z,17.77
2022-10-24T14:30:58.958Z,17.69
2022-10-24T14:33:30.110Z,17.64
2022-10-24T14:35:59.176Z,17.55
2022-10-24T14:38:27.110Z,17.54
2022-10-24T14:41:07.939Z,17.47
2022-10-24T14:43:37.327Z,17.38
2022-10-24T14:46:10.077Z,17.38
2022-10-24T14:48:37.324Z,17.42
2022-10-24T14:51:08.974Z,17.51
2022-10-24T14:53:37.345Z,17.59
2022-10-24T14:56:05.205Z,17.64
2022-10-24T14:58:33.573Z,17.78
2022-10-24T15:01:00.362Z,17.80
2022-10-24T15:03:28.810Z,17.69
2022-10-24T15:06:10.462Z,17.65
2022-10-24T15:08:39.591Z,17.55
2022-10-24T15:11:17.053Z,17.39
2022-10-24T15:14:00.028Z,17.37
2022-10-24T15:16:38.975Z,17.25
2022-10-24T15:19:14.947Z,17.11
2022-10-24T15:21:44.360Z,17.07
2022-10-24T15:24:25.274Z,17.07
2022-10-24T15:27:09.458Z,17.04
2022-10-24T15:29:36.100Z,16.94
2022-10-24T15:32:02.812Z,16.99
2022-10-24T15:34:32.812Z,16.97
2022-10-24T15:37:07.248Z,16.93
2022-10-24T15:39:36.509Z,16.97
2022-10-24T15:42:06.563Z,16.94
2022-10-24T15:44:35.353Z,16.90
2022-10-24T15:47:01.997Z,16.80
2022-10-24T15:49:29.086Z,16.78
2022-10-24T15:51:56.387Z,16.76
2022-10-24T15:54:23.317Z,16.76
2022-10-24T15:56:59.444Z,16.70
2022-10-24T15:59:28.742Z,16.68
2022-10-24T16:01:58.352Z,16.66
2022-10-24T16:04:25.049Z,16.69
2022-10-24T16:06:52.375Z,16.63
2022-10-24T16:09:23.005Z,16.67
2022-10-24T16:11:56.849Z,16.62
2022-10-24T16:14:26.247Z,16.58
2022-10-24T16:16:55.156Z,16.58
2022-10-24T16:19:22.772Z,16.54
2022-10-24T16:21:49.645Z,16.58
2022-10-24T16:24:16.413Z,16.55
2022-10-24T16:26:43.035Z,16.58
2022-10-24T16:29:10.188Z,16.53
2022-10-24T16:31:39.851Z,16.49
2022-10-24T16:34:07.442Z,16.58
2022-10-24T16:36:34.147Z,16.72
2022-10-24T16:39:00.791Z,16.70
2022-10-24T16:41:27.503Z,16.70
2022-10-24T16:43:56.239Z,16.72
2022-10-24T16:46:23.821Z,16.64
2022-10-24T16:48:50.706Z,16.56
2022-10-24T16:51:21.266Z,16.53
2022-10-24T16:53:47.920Z,16.65
2022-10-24T16:56:15.719Z,16.65
2022-10-24T16:58:42.871Z,16.53
2022-10-24T17:01:11.986Z,16.44
2022-10-24T17:03:39.323Z,16.38
2022-10-24T17:06:06.783Z,16.39
2022-10-24T17:08:33.750Z,16.37
2022-10-24T17:11:00.949Z,16.44
2022-10-24T17:13:28.107Z,16.36
2022-10-24T17:15:54.821Z,16.33
2022-10-24T17:18:23.511Z,16.34
2022-10-24T17:20:50.341Z,16.39
2022-10-24T17:23:20.825Z,16.35
2022-10-24T17:25:47.954Z,16.28
2022-10-24T17:28:16.180Z,16.20
2022-10-24T17:30:43.779Z,16.12
2022-10-24T17:33:11.293Z,16.06
2022-10-24T17:35:41.905Z,16.06
2022-10-24T17:38:26.813Z,16.07
2022-10-24T17:40:54.841Z,16.00
2022-10-24T17:43:23.884Z,15.98
2022-10-24T17:45:50.707Z,15.90
2022-10-24T17:48:17.859Z,16.06
2022-10-24T17:50:45.273Z,16.15
2022-10-24T17:53:17.018Z,16.15
2022-10-24T17:55:46.701Z,16.10
2022-10-24T17:58:14.719Z,16.11
2022-10-24T18:00:41.487Z,16.24
2022-10-24T18:03:11.082Z,16.33
2022-10-24T18:05:38.550Z,16.42
2022-10-24T18:08:07.205Z,16.31
2022-10-24T18:10:33.990Z,16.29
2022-10-24T18:13:00.784Z,16.31
2022-10-24T18:15:27.579Z,15.76
2022-10-24T18:17:54.218Z,15.02
2022-10-24T18:20:21.096Z,13.63
2022-10-24T18:22:48.026Z,12.20
2022-10-24T18:25:20.223Z,11.94
2022-10-24T18:27:49.645Z,11.79
2022-10-24T18:30:19.715Z,11.93
2022-10-24T18:32:47.394Z,12.04
2022-10-24T18:35:14.483Z,12.25
2022-10-24T18:37:41.319Z,12.32
2022-10-24T18:40:09.541Z,12.39
2022-10-24T18:42:54.413Z,12.63
2022-10-24T18:45:26.583Z,12.69
2022-10-24T18:47:54.050Z,12.79
2022-10-24T18:50:24.623Z,12.95
2022-10-24T18:53:06.712Z,13.03
2022-10-24T18:55:34.680Z,13.13
2022-10-24T18:58:02.138Z,13.28
2022-10-24T19:00:31.007Z,13.34
2022-10-24T19:03:18.738Z,13.26
2022-10-24T19:05:51.931Z,13.28
2022-10-24T19:08:23.733Z,13.34
2022-10-24T19:10:56.150Z,13.27
2022-10-24T19:13:24.704Z,13.34
2022-10-24T19:16:00.237Z,13.45
2022-10-24T19:18:28.861Z,13.45
2022-10-24T19:20:55.970Z,13.49
2022-10-24T19:23:23.737Z,13.42
2022-10-24T19:25:51.038Z,13.51
2022-10-24T19:28:19.356Z,13.47
2022-10-24T19:30:46.531Z,13.49
2022-10-24T19:33:14.466Z,13.36
2022-10-24T19:35:47.202Z,13.26
2022-10-24T19:38:15.006Z,13.30
2022-10-24T19:40:52.905Z,13.32
2022-10-24T19:43:23.482Z,13.49
2022-10-24T19:46:07.221Z,13.46
2022-10-24T19:48:37.299Z,13.45
2022-10-24T19:51:10.882Z,13.52
2022-10-24T19:53:39.793Z,13.63
2022-10-24T19:56:09.214Z,13.65
2022-10-24T19:58:36.943Z,13.60
2022-10-24T20:01:08.730Z,13.56
2022-10-24T20:03:36.742Z,13.73
2022-10-24T20:06:03.576Z,13.69
2022-10-24T20:08:30.260Z,13.66
2022-10-24T20:10:56.902Z,13.73
2022-10-24T20:13:23.597Z,13.82
2022-10-24T20:16:00.968Z,13.80
2022-10-24T20:18:28.365Z,13.70
2022-10-24T20:20:55.248Z,13.73
2022-10-24T20:23:22.688Z,13.56
2022-10-24T20:25:50.195Z,13.68
2022-10-24T20:28:17.113Z,13.60
2022-10-24T20:30:46.903Z,13.73
2022-10-24T20:33:14.897Z,13.74
2022-10-24T20:35:42.887Z,13.76
2022-10-24T20:38:09.808Z,13.63
2022-10-24T20:40:36.580Z,13.72
2022-10-24T20:43:04.726Z,13.70
2022-10-24T20:45:34.190Z,13.64
2022-10-24T20:48:01.538Z,13.59
2022-10-24T20:50:28.305Z,13.49
2022-10-24T20:52:55.217Z,13.51
2022-10-24T20:55:39.254Z,13.53
2022-10-24T20:58:12.142Z,13.52
2022-10-24T21:00:38.774Z,13.49
2022-10-24T21:03:05.452Z,13.54
2022-10-24T21:05:34.912Z,13.52
2022-10-24T21:08:01.617Z,13.61
2022-10-24T21:10:28.274Z,13.68
2022-10-24T21:12:55.269Z,13.73
2022-10-24T21:15:22.047Z,13.76
2022-10-24T21:17:48.946Z,13.78
2022-10-24T21:20:15.869Z,13.76
2022-10-24T21:22:42.620Z,13.75
2022-10-24T21:25:09.689Z,13.73
2022-10-24T21:27:36.274Z,13.69
2022-10-24T21:30:03.080Z,13.64
2022-10-24T21:32:29.680Z,13.52
2022-10-24T21:34:56.252Z,13.46
2022-10-24T21:37:22.831Z,13.39
2022-10-24T21:39:49.452Z,13.52
2022-10-24T21:42:16.148Z,13.55
2022-10-24T21:44:42.837Z,13.44
2022-10-24T21:47:09.505Z,13.34
2022-10-24T21:49:36.112Z,13.25
2022-10-24T21:52:02.793Z,13.28
2022-10-24T21:54:29.882Z,13.28
2022-10-24T21:56:59.802Z,13.13
2022-10-24T21:59:26.473Z,13.14
2022-10-24T22:01:53.576Z,13.11
2022-10-24T22:04:20.676Z,13.13
2022-10-24T22:06:47.435Z,13.15
2022-10-24T22:09:17.347Z,13.15
2022-10-24T22:11:44.803Z,13.12
2022-10-24T22:14:13.964Z,13.10
2022-10-24T22:16:41.131Z,13.15
2022-10-24T22:19:08.133Z,13.16
2022-10-24T22:21:36.024Z,13.16
2022-10-24T22:26:32.318Z,13.03
2022-10-24T22:28:59.048Z,13.00
2022-10-24T22:31:27.889Z,13.18
2022-10-24T22:33:55.777Z,13.07
2022-10-24T22:36:41.196Z,13.04
2022-10-24T22:39:16.856Z,13.01
2022-10-24T22:41:44.667Z,12.93
2022-10-24T22:44:12.782Z,12.95
2022-10-24T22:47:16.844Z,12.92
2022-10-24T22:49:54.278Z,12.81
2022-10-24T22:52:21.235Z,12.73
2022-10-24T22:54:48.106Z,12.62
2022-10-24T22:57:14.936Z,12.63
2022-10-24T22:59:41.858Z,12.58
2022-10-24T23:02:23.899Z,12.58
2022-10-24T23:04:59.966Z,12.51
2022-10-24T23:07:41.986Z,12.54
2022-10-24T23:10:16.489Z,12.58
2022-10-24T23:12:43.486Z,12.61
2022-10-24T23:15:13.610Z,12.70
2022-10-24T23:17:40.806Z,12.70
2022-10-24T23:20:19.844Z,12.84
2022-10-24T23:22:54.271Z,12.84
2022-10-24T23:25:30.257Z,12.75
2022-10-24T23:28:15.283Z,12.86
2022-10-24T23:30:42.171Z,12.88
2022-10-24T23:33:13.743Z,12.81
2022-10-24T23:35:40.606Z,12.87
2022-10-24T23:38:09.588Z,12.79
2022-10-24T23:40:36.667Z,12.84
2022-10-24T23:43:04.488Z,12.85
2022-10-24T23:45:54.167Z,12.81
2022-10-24T23:48:39.550Z,12.71
2022-10-24T23:51:13.836Z,12.67
2022-10-24T23:53:50.067Z,12.60
2022-10-24T23:56:25.675Z,12.61
2022-10-24T23:58:52.679Z,12.54
